Time;durP1;ratioP1;P1;durP2;ratioP2;P2;SDS_P1;SDS_P2;PMS_P1;PMS_P2;Temp;Humidity;BMP_temperature;BMP_pressure;BME280_temperature;BME280_humidity;BME280_pressure;Samples;Min_cycle;Max_cycle;Signal;HPM_P1;HPM_P2
2021/11/19 00:00:04;;;;;;;;;;;;;;;20.98;49.32;100996.16;2070443;28;21045;-64
2021/11/19 00:01:09;;;;;;;;;;;;;;;20.99;49.34;100999.75;2077788;28;19935;-64
2021/11/19 00:02:09;;;;;;;;;;;;;;;20.98;49.40;100996.16;2070619;28;20853;-64
2021/11/19 00:03:10;;;;;;;;;;;;;;;20.98;49.28;100993.41;2071659;28;19924;-65
2021/11/19 00:04:10;;;;;;;;;;;;;;;20.98;49.21;100990.69;2070452;28;20039;-65
2021/11/19 00:05:11;;;;;;;;;;;;;;;20.98;49.03;100995.31;2076621;28;19921;-64
2021/11/19 00:06:12;;;;;;;;;;;;;;;20.98;49.18;100998.91;2070631;28;19917;-64
2021/11/19 00:07:13;;;;;;;;;;;;;;;20.97;49.27;100986.22;2072215;28;19964;-64
2021/11/19 00:08:15;;;;;;;;;;;;;;;20.97;49.34;100983.47;2073364;28;20008;-64
2021/11/19 00:09:15;;;;;;;;;;;;;;;20.97;49.17;100982.63;2069612;28;19979;-64
2021/11/19 00:10:15;;;;;;;;;;;;;;;20.97;49.24;100986.22;2069319;28;19910;-63
2021/11/19 00:11:17;;;;;;;;;;;;;;;20.98;49.32;100984.34;2070461;28;19967;-63
2021/11/19 00:12:17;;;;;;;;;;;;;;;20.97;49.37;100983.47;2070927;28;19920;-64
2021/11/19 00:13:18;;;;;;;;;;;;;;;20.97;49.33;100983.47;2070192;28;19921;-63
2021/11/19 00:14:19;;;;;;;;;;;;;;;20.98;49.29;100985.19;2071325;28;19917;-65
2021/11/19 00:15:19;;;;;;;;;;;;;;;20.98;49.33;100981.59;2075507;28;19915;-64
2021/11/19 00:16:23;;;;;;;;;;;;;;;20.97;49.23;100983.47;2069221;28;19913;-64
2021/11/19 00:17:23;;;;;;;;;;;;;;;20.99;49.20;100988.81;2070461;28;20319;-64
2021/11/19 00:18:24;;;;;;;;;;;;;;;21.00;49.13;100986.94;2070268;28;19913;-64
2021/11/19 00:19:25;;;;;;;;;;;;;;;21.01;49.37;100988.66;2069364;28;20971;-64
2021/11/19 00:20:28;;;;;;;;;;;;;;;21.00;49.13;100982.34;2067947;28;19917;-64
2021/11/19 00:21:30;;;;;;;;;;;;;;;21.01;49.19;100991.41;2072655;28;19921;-64
2021/11/19 00:22:30;;;;;;;;;;;;;;;21.00;49.06;100987.81;2071318;28;19927;-63
2021/11/19 00:23:30;;;;;;;;;;;;;;;21.01;49.43;100988.66;2069866;28;19916;-64
2021/11/19 00:24:31;;;;;;;;;;;;;;;21.00;49.25;100996.03;2067297;28;19917;-63
2021/11/19 00:25:32;;;;;;;;;;;;;;;21.02;49.30;100990.38;2060881;28;20673;-63
2021/11/19 00:26:32;;;;;;;;;;;;;;;21.01;49.40;100994.16;2063828;28;19924;-63
2021/11/19 00:27:33;;;;;;;;;;;;;;;21.01;49.40;100994.16;2067856;28;20360;-63
2021/11/19 00:28:34;;;;;;;;;;;;;;;21.02;49.26;100990.38;2069580;28;20454;-63
2021/11/19 00:29:34;;;;;;;;;;;;;;;21.01;48.97;100989.53;2065402;28;20566;-63
2021/11/19 00:30:35;;;;;;;;;;;;;;;21.01;49.05;100986.78;2063880;28;20008;-63
2021/11/19 00:31:36;;;;;;;;;;;;;;;21.02;49.00;100982.16;2072765;28;21017;-63
2021/11/19 00:32:37;;;;;;;;;;;;;;;21.02;48.94;100991.28;2067420;28;20419;-63
2021/11/19 00:33:38;;;;;;;;;;;;;;;21.02;49.06;100984.91;2067107;28;19975;-63
2021/11/19 00:34:40;;;;;;;;;;;;;;;21.04;49.05;100985.63;2069999;28;20376;-63
2021/11/19 00:35:42;;;;;;;;;;;;;;;21.04;49.11;100982.91;2072037;28;20995;-64
2021/11/19 00:36:42;;;;;;;;;;;;;;;21.05;49.04;100990.13;2071423;28;19920;-63
2021/11/19 00:37:43;;;;;;;;;;;;;;;21.06;49.02;100991.84;2075840;28;19916;-63
2021/11/19 00:38:45;;;;;;;;;;;;;;;21.06;49.18;100984.50;2072806;28;19918;-63
2021/11/19 00:39:45;;;;;;;;;;;;;;;21.06;48.76;100981.75;2076492;28;19921;-64
2021/11/19 00:40:50;;;;;;;;;;;;;;;21.07;49.06;100982.59;2073015;28;20646;-64
2021/11/19 00:41:51;;;;;;;;;;;;;;;21.07;49.01;100991.72;2071560;28;20757;-64
2021/11/19 00:42:52;;;;;;;;;;;;;;;21.09;49.05;100986.09;2076113;28;20682;-64
2021/11/19 00:43:52;;;;;;;;;;;;;;;21.08;49.13;100984.34;2072776;28;19992;-66
2021/11/19 00:44:52;;;;;;;;;;;;;;;21.09;48.99;100986.09;2075436;28;19927;-64
2021/11/19 00:45:54;;;;;;;;;;;;;;;21.08;49.13;100984.34;2075145;28;19916;-64
2021/11/19 00:46:54;;;;;;;;;;;;;;;21.09;48.98;100980.59;2072337;28;20427;-64
2021/11/19 00:47:55;;;;;;;;;;;;;;;21.08;49.03;100984.34;2075711;28;20428;-64
2021/11/19 00:48:56;;;;;;;;;;;;;;;21.08;49.08;100982.47;2070133;28;19928;-64
2021/11/19 00:49:59;;;;;;;;;;;;;;;21.08;49.29;100977.00;2071142;28;19949;-64
2021/11/19 00:51:20;;;;;;;;;;;;;;;21.09;48.97;100977.84;2075752;28;20339;-64
2021/11/19 00:52:20;;;;;;;;;;;;;;;21.08;49.22;100976.13;2074184;28;19920;-64
2021/11/19 00:53:21;;;;;;;;;;;;;;;21.08;49.15;100978.88;2070168;28;19909;-64
2021/11/19 00:54:22;;;;;;;;;;;;;;;21.07;49.00;100972.53;2073845;28;20574;-65
2021/11/19 00:55:22;;;;;;;;;;;;;;;21.08;48.80;100962.44;2074801;28;19929;-64
2021/11/19 00:56:26;;;;;;;;;;;;;;;21.08;48.86;100963.28;2073336;28;20015;-64
2021/11/19 00:57:26;;;;;;;;;;;;;;;21.08;49.01;100967.91;2069534;28;20013;-64
2021/11/19 00:58:26;;;;;;;;;;;;;;;21.07;49.06;100960.69;2073333;28;19959;-65
2021/11/19 00:59:29;;;;;;;;;;;;;;;21.07;48.98;100972.53;2073094;28;19913;-64
2021/11/19 01:00:32;;;;;;;;;;;;;;;21.07;49.14;100964.31;2076216;28;19912;-64
2021/11/19 01:01:35;;;;;;;;;;;;;;;21.07;48.94;100975.28;2062774;28;19929;-65
2021/11/19 01:02:35;;;;;;;;;;;;;;;21.08;49.08;100976.13;2064871;28;19952;-64
2021/11/19 01:03:36;;;;;;;;;;;;;;;21.08;49.19;100970.66;2074416;28;20019;-64
2021/11/19 01:04:36;;;;;;;;;;;;;;;21.07;49.02;100975.28;2070309;28;19917;-64
2021/11/19 01:05:36;;;;;;;;;;;;;;;21.07;48.84;100977.13;2074777;28;19928;-65
2021/11/19 01:06:37;;;;;;;;;;;;;;;21.06;49.10;100975.41;2073162;28;19913;-65
2021/11/19 01:07:37;;;;;;;;;;;;;;;21.06;49.05;100978.16;2074768;28;19909;-65
2021/11/19 01:08:38;;;;;;;;;;;;;;;21.06;49.04;100978.16;2075336;28;19909;-65
2021/11/19 01:09:40;;;;;;;;;;;;;;;21.06;48.83;100978.16;2075243;28;19908;-65
2021/11/19 01:10:42;;;;;;;;;;;;;;;21.05;49.00;100979.16;2075116;28;19939;-65
2021/11/19 01:11:42;;;;;;;;;;;;;;;21.05;48.77;100980.03;2075300;28;19909;-65
2021/11/19 01:12:43;;;;;;;;;;;;;;;21.05;48.97;100976.44;2070870;28;19913;-65
2021/11/19 01:13:45;;;;;;;;;;;;;;;21.06;48.89;100983.63;2068116;28;19905;-65
2021/11/19 01:14:56;;;;;;;;;;;;;;;21.06;49.03;100978.16;2073366;28;19924;-65
2021/11/19 01:15:59;;;;;;;;;;;;;;;21.04;48.83;100982.91;2070674;28;19917;-65
2021/11/19 01:17:01;;;;;;;;;;;;;;;21.04;48.82;100977.41;2073111;28;19908;-65
2021/11/19 01:18:07;;;;;;;;;;;;;;;21.03;48.88;100981.19;2076516;28;20723;-65
2021/11/19 01:19:13;;;;;;;;;;;;;;;21.03;48.86;100975.69;2068428;28;20433;-65
2021/11/19 01:20:18;;;;;;;;;;;;;;;21.03;48.94;100981.19;2066017;28;20816;-65
2021/11/19 01:21:18;;;;;;;;;;;;;;;21.03;49.22;100975.69;2076880;28;19909;-65
2021/11/19 01:22:21;;;;;;;;;;;;;;;21.04;49.30;100974.69;2073821;28;19908;-65
2021/11/19 01:23:23;;;;;;;;;;;;;;;21.03;49.20;100972.97;2066276;28;19913;-65
2021/11/19 01:24:24;;;;;;;;;;;;;;;21.03;48.91;100975.69;2067586;28;20222;-64
2021/11/19 01:25:26;;;;;;;;;;;;;;;21.01;49.30;100978.56;2076367;28;19920;-64
2021/11/19 01:26:30;;;;;;;;;;;;;;;21.02;49.17;100983.06;2076109;28;19908;-64
2021/11/19 01:27:30;;;;;;;;;;;;;;;21.01;49.22;100977.72;2068166;28;19939;-64
2021/11/19 01:28:30;;;;;;;;;;;;;;;21.01;49.19;100977.72;2065581;28;20003;-64
2021/11/19 01:29:30;;;;;;;;;;;;;;;21.00;49.17;100971.38;2068640;28;19913;-64
2021/11/19 01:30:33;;;;;;;;;;;;;;;21.01;48.88;100977.72;2074583;28;19912;-64
2021/11/19 01:31:43;;;;;;;;;;;;;;;21.00;48.85;100976.00;2076896;28;20820;-64
2021/11/19 01:32:44;;;;;;;;;;;;;;;20.98;49.00;100963.28;2070057;28;19909;-64
2021/11/19 01:33:45;;;;;;;;;;;;;;;20.98;49.06;100971.50;2073653;28;19967;-64
2021/11/19 01:34:45;;;;;;;;;;;;;;;20.98;49.04;100968.75;2074850;28;20575;-64
2021/11/19 01:35:46;;;;;;;;;;;;;;;20.97;48.82;100964.28;2073448;28;19952;-64
2021/11/19 01:36:46;;;;;;;;;;;;;;;20.97;49.15;100964.28;2070357;28;20684;-66
2021/11/19 01:37:47;;;;;;;;;;;;;;;20.94;48.93;100961.81;2071200;28;19920;-66
2021/11/19 01:38:47;;;;;;;;;;;;;;;20.88;49.26;100961.53;2072234;28;19917;-66
2021/11/19 01:39:48;;;;;;;;;;;;;;;20.78;49.44;100964.25;2076271;28;19916;-66
2021/11/19 01:40:50;;;;;;;;;;;;;;;20.70;49.51;100962.22;2065666;28;19913;-66
2021/11/19 01:41:53;;;;;;;;;;;;;;;20.64;49.58;100964.63;2067059;28;20007;-66
2021/11/19 01:42:55;;;;;;;;;;;;;;;20.58;49.68;100959.69;2072624;28;19939;-66
2021/11/19 01:43:55;;;;;;;;;;;;;;;20.53;49.67;100958.22;2075560;28;20012;-65
2021/11/19 01:44:59;;;;;;;;;;;;;;;20.50;49.99;100961.22;2076020;28;19921;-66
2021/11/19 01:46:02;;;;;;;;;;;;;;;20.47;49.80;100964.25;2062859;28;20027;-66
2021/11/19 01:47:04;;;;;;;;;;;;;;;20.46;49.89;100959.78;2055219;28;19956;-66
2021/11/19 01:48:06;;;;;;;;;;;;;;;20.45;49.83;100960.75;2066765;28;20462;-66
2021/11/19 01:49:07;;;;;;;;;;;;;;;20.44;50.03;100958.19;2074420;28;19916;-66
2021/11/19 01:50:22;;;;;;;;;;;;;;;20.43;49.96;100960.06;2071344;28;20887;-66
2021/11/19 01:51:32;;;;;;;;;;;;;;;20.42;49.91;100958.31;2072029;28;20267;-66
2021/11/19 01:52:53;;;;;;;;;;;;;;;20.41;49.97;100953.84;2071163;28;19908;-66
2021/11/19 01:53:59;;;;;;;;;;;;;;;20.40;49.92;100956.72;2072737;28;20671;-66
2021/11/19 01:55:03;;;;;;;;;;;;;;;20.39;50.00;100955.84;2074323;28;19988;-66
2021/11/19 01:56:11;;;;;;;;;;;;;;;20.38;49.97;100953.25;2073189;28;20280;-65
2021/11/19 01:57:16;;;;;;;;;;;;;;;20.38;50.01;100953.25;2073385;28;20124;-66
2021/11/19 01:58:23;;;;;;;;;;;;;;;20.36;50.05;100950.66;2075747;28;20016;-66
2021/11/19 01:59:29;;;;;;;;;;;;;;;20.35;50.05;100954.38;2073805;28;20506;-65
2021/11/19 02:00:29;;;;;;;;;;;;;;;20.33;50.31;100950.91;2072991;28;19917;-66
2021/11/19 02:01:36;;;;;;;;;;;;;;;20.33;50.14;100945.44;2071877;28;19940;-66
2021/11/19 02:02:41;;;;;;;;;;;;;;;20.32;50.31;100949.19;2072384;28;19923;-66
2021/11/19 02:03:44;;;;;;;;;;;;;;;20.31;50.30;100951.06;2073752;28;20097;-66
2021/11/19 02:04:50;;;;;;;;;;;;;;;20.31;50.14;100955.69;2067222;28;19917;-66
2021/11/19 02:05:59;;;;;;;;;;;;;;;20.30;50.19;100951.19;2070929;28;19963;-66
2021/11/19 02:07:05;;;;;;;;;;;;;;;20.28;50.34;100956.81;2070506;28;19917;-66
2021/11/19 02:08:09;;;;;;;;;;;;;;;20.27;50.16;100955.06;2071401;28;20452;-66
2021/11/19 02:09:14;;;;;;;;;;;;;;;20.27;50.38;100956.97;2072479;28;19913;-66
2021/11/19 02:10:23;;;;;;;;;;;;;;;20.28;50.24;100955.94;2074653;28;19975;-66
2021/11/19 02:11:23;;;;;;;;;;;;;;;20.26;50.37;100944.25;2071212;28;20003;-66
2021/11/19 02:12:24;;;;;;;;;;;;;;;20.25;50.19;100957.09;2074663;28;19913;-66
2021/11/19 02:13:24;;;;;;;;;;;;;;;20.25;50.26;100957.09;2074928;28;19909;-66
2021/11/19 02:14:40;;;;;;;;;;;;;;;20.25;50.52;100956.22;2073873;28;20005;-66
2021/11/19 02:16:06;;;;;;;;;;;;;;;20.22;50.38;100957.38;2074254;28;19917;-66
2021/11/19 02:17:08;;;;;;;;;;;;;;;20.22;50.41;100956.50;2070814;28;19923;-66
2021/11/19 02:18:10;;;;;;;;;;;;;;;20.22;50.42;100959.25;2075639;28;19938;-66
2021/11/19 02:19:24;;;;;;;;;;;;;;;20.21;50.39;100952.00;2074045;28;19996;-66
2021/11/19 02:20:27;;;;;;;;;;;;;;;20.21;50.50;100952.00;2065123;28;19939;-66
2021/11/19 02:21:31;;;;;;;;;;;;;;;20.20;50.58;100944.81;2067279;28;19972;-66
2021/11/19 02:22:36;;;;;;;;;;;;;;;20.18;50.61;100950.41;2069631;28;20731;-66
2021/11/19 02:23:40;;;;;;;;;;;;;;;20.18;50.53;100952.28;2074730;28;19949;-66
2021/11/19 02:24:43;;;;;;;;;;;;;;;20.18;50.66;100957.78;2075818;28;20763;-66
2021/11/19 02:25:46;;;;;;;;;;;;;;;20.17;50.49;100958.78;2063633;28;19999;-66
2021/11/19 02:26:49;;;;;;;;;;;;;;;20.15;50.71;100955.31;2064745;28;20350;-66
2021/11/19 02:28:10;;;;;;;;;;;;;;;20.15;50.53;100952.56;2072688;28;19920;-66
2021/11/19 02:29:11;;;;;;;;;;;;;;;20.13;50.47;100961.78;2072903;28;19917;-66
2021/11/19 02:30:16;;;;;;;;;;;;;;;20.13;50.58;100956.28;2071515;28;19921;-66
2021/11/19 02:31:19;;;;;;;;;;;;;;;20.12;50.58;100948.25;2075197;28;19908;-66
2021/11/19 02:32:23;;;;;;;;;;;;;;;20.11;50.78;100950.13;2074125;28;20800;-66
2021/11/19 02:33:24;;;;;;;;;;;;;;;20.11;50.61;100952.84;2075107;28;19916;-66
2021/11/19 02:34:25;;;;;;;;;;;;;;;20.11;50.74;100955.59;2075004;28;20880;-66
2021/11/19 02:35:29;;;;;;;;;;;;;;;20.11;50.66;100950.13;2072438;28;20956;-66
2021/11/19 02:36:33;;;;;;;;;;;;;;;20.10;50.75;100942.88;2074969;28;20655;-66
2021/11/19 02:37:54;;;;;;;;;;;;;;;20.10;50.73;100956.56;2071685;28;19913;-66
2021/11/19 02:38:57;;;;;;;;;;;;;;;20.10;50.57;100956.56;2070953;28;20121;-66
2021/11/19 02:39:59;;;;;;;;;;;;;;;20.09;50.59;100948.53;2071865;28;19917;-66
2021/11/19 02:41:00;;;;;;;;;;;;;;;20.08;50.56;100953.09;2075030;28;20023;-66
2021/11/19 02:42:02;;;;;;;;;;;;;;;20.08;50.64;100947.63;2072116;28;19924;-66
2021/11/19 02:43:05;;;;;;;;;;;;;;;20.08;50.69;100947.63;2074331;28;19921;-66
2021/11/19 02:44:07;;;;;;;;;;;;;;;20.07;50.61;100951.38;2073914;28;19959;-66
2021/11/19 02:45:16;;;;;;;;;;;;;;;20.07;50.77;100945.91;2068829;28;19963;-65
2021/11/19 02:46:24;;;;;;;;;;;;;;;20.06;50.75;100940.56;2073610;28;19920;-66
2021/11/19 02:47:26;;;;;;;;;;;;;;;20.06;50.60;100943.28;2074109;28;19982;-66
2021/11/19 02:48:28;;;;;;;;;;;;;;;20.05;50.70;100945.16;2075435;28;19913;-66
2021/11/19 02:49:28;;;;;;;;;;;;;;;20.05;50.71;100950.66;2070177;28;20352;-66
2021/11/19 02:50:29;;;;;;;;;;;;;;;20.04;50.70;100946.19;2075093;28;19927;-66
2021/11/19 02:51:30;;;;;;;;;;;;;;;20.04;50.84;100948.91;2065179;28;19913;-66
2021/11/19 02:52:31;;;;;;;;;;;;;;;20.03;50.77;100947.16;2064584;28;19917;-66
2021/11/19 02:53:32;;;;;;;;;;;;;;;20.04;50.88;100945.28;2074851;28;19909;-66
2021/11/19 02:54:33;;;;;;;;;;;;;;;20.03;50.71;100944.44;2066678;28;20395;-66
2021/11/19 02:55:35;;;;;;;;;;;;;;;20.02;50.68;100945.44;2065103;28;19925;-66
2021/11/19 02:56:37;;;;;;;;;;;;;;;20.01;50.76;100935.47;2073930;28;19921;-66
2021/11/19 02:57:38;;;;;;;;;;;;;;;20.00;50.78;100944.72;2073776;28;19920;-66
2021/11/19 02:58:40;;;;;;;;;;;;;;;20.00;50.90;100933.78;2073243;28;19921;-66
2021/11/19 02:59:41;;;;;;;;;;;;;;;20.00;50.91;100939.25;2073315;28;19927;-66
2021/11/19 03:00:51;;;;;;;;;;;;;;;20.00;50.89;100944.72;2071068;28;19970;-66
2021/11/19 03:01:55;;;;;;;;;;;;;;;19.99;50.92;100948.47;2074073;28;20603;-66
2021/11/19 03:02:56;;;;;;;;;;;;;;;19.99;50.92;100939.38;2074358;28;20907;-66
2021/11/19 03:04:09;;;;;;;;;;;;;;;19.99;50.92;100942.09;2072786;28;20061;-66
2021/11/19 03:05:12;;;;;;;;;;;;;;;19.98;51.00;100938.50;2075103;28;20176;-66
2021/11/19 03:06:13;;;;;;;;;;;;;;;19.97;50.94;100928.56;2076491;28;20844;-66
2021/11/19 03:07:14;;;;;;;;;;;;;;;19.97;50.92;100934.03;2078701;28;20711;-66
2021/11/19 03:08:14;;;;;;;;;;;;;;;19.97;50.88;100936.78;2074618;28;20379;-66
2021/11/19 03:09:15;;;;;;;;;;;;;;;19.96;51.09;100937.75;2075957;28;19921;-66
2021/11/19 03:10:19;;;;;;;;;;;;;;;19.96;51.01;100926.81;2073952;28;20612;-65
2021/11/19 03:11:19;;;;;;;;;;;;;;;19.96;50.91;100931.44;2069906;28;19917;-66
2021/11/19 03:12:21;;;;;;;;;;;;;;;19.96;50.99;100926.81;2075205;28;19924;-65
2021/11/19 03:13:23;;;;;;;;;;;;;;;19.96;51.05;100925.97;2075808;28;20011;-65
2021/11/19 03:14:23;;;;;;;;;;;;;;;19.96;50.98;100926.81;2078596;28;20129;-65
2021/11/19 03:15:27;;;;;;;;;;;;;;;19.96;50.92;100924.09;2072751;28;19955;-65
2021/11/19 03:16:27;;;;;;;;;;;;;;;19.97;51.01;100923.09;2071066;28;20384;-65
2021/11/19 03:17:28;;;;;;;;;;;;;;;19.97;50.99;100928.56;2075537;28;20541;-66
2021/11/19 03:18:29;;;;;;;;;;;;;;;19.98;51.04;100922.09;2075105;28;20123;-66
2021/11/19 03:19:29;;;;;;;;;;;;;;;20.00;50.90;100922.81;2074159;28;20583;-65
2021/11/19 03:20:30;;;;;;;;;;;;;;;19.99;50.96;100923.84;2072722;28;19920;-65
2021/11/19 03:21:31;;;;;;;;;;;;;;;20.00;51.07;100921.97;2075102;28;19952;-65
2021/11/19 03:22:31;;;;;;;;;;;;;;;19.99;50.86;100920.22;2076147;28;20674;-66
2021/11/19 03:23:32;;;;;;;;;;;;;;;20.00;50.91;100916.50;2077734;28;19916;-65
2021/11/19 03:24:33;;;;;;;;;;;;;;;20.00;50.93;100914.59;2074634;28;19916;-65
2021/11/19 03:25:37;;;;;;;;;;;;;;;20.00;50.96;100917.34;2076523;28;19927;-65
2021/11/19 03:26:37;;;;;;;;;;;;;;;20.02;50.96;100915.34;2076549;28;19916;-65
2021/11/19 03:27:38;;;;;;;;;;;;;;;20.02;50.93;100915.34;2075619;28;19916;-66
2021/11/19 03:28:38;;;;;;;;;;;;;;;20.02;50.88;100914.47;2077175;28;19955;-65
2021/11/19 03:29:40;;;;;;;;;;;;;;;20.01;50.81;100910.84;2070943;28;20469;-66
2021/11/19 03:30:42;;;;;;;;;;;;;;;20.01;50.88;100908.13;2067013;28;19917;-65
2021/11/19 03:31:43;;;;;;;;;;;;;;;20.01;50.91;100910.84;2066077;28;19918;-65
2021/11/19 03:32:43;;;;;;;;;;;;;;;20.00;50.74;100909.13;2066880;28;19917;-66
2021/11/19 03:33:46;;;;;;;;;;;;;;;20.01;50.88;100913.59;2076509;28;19924;-65
2021/11/19 03:34:46;;;;;;;;;;;;;;;20.01;50.75;100913.59;2075263;28;19917;-65
2021/11/19 03:35:47;;;;;;;;;;;;;;;20.00;50.83;100911.88;2074446;28;19921;-66
2021/11/19 03:36:50;;;;;;;;;;;;;;;20.00;50.70;100911.88;2077174;28;19924;-65
2021/11/19 03:37:51;;;;;;;;;;;;;;;20.00;50.87;100909.13;2074617;28;20004;-65
2021/11/19 03:38:53;;;;;;;;;;;;;;;20.00;50.83;100911.88;2074044;28;19916;-65
2021/11/19 03:39:53;;;;;;;;;;;;;;;19.99;50.82;100907.41;2071292;28;20168;-66
2021/11/19 03:40:54;;;;;;;;;;;;;;;20.00;50.76;100922.81;2075922;28;19913;-65
2021/11/19 03:41:56;;;;;;;;;;;;;;;20.00;50.78;100911.00;2071748;28;19921;-66
2021/11/19 03:42:59;;;;;;;;;;;;;;;19.99;50.79;100921.09;2074355;28;19909;-65
2021/11/19 03:44:05;;;;;;;;;;;;;;;19.99;50.92;100921.09;2077489;28;19924;-65
2021/11/19 03:45:08;;;;;;;;;;;;;;;20.00;50.74;100925.56;2075172;28;19928;-65
2021/11/19 03:46:19;;;;;;;;;;;;;;;19.99;50.90;100921.09;2067941;28;20571;-66
2021/11/19 03:47:22;;;;;;;;;;;;;;;19.99;50.89;100925.69;2075195;28;20672;-65
2021/11/19 03:48:23;;;;;;;;;;;;;;;19.98;50.81;100924.81;2076206;28;19909;-66
2021/11/19 03:49:24;;;;;;;;;;;;;;;19.98;50.78;100919.34;2074839;28;19916;-65
2021/11/19 03:50:30;;;;;;;;;;;;;;;19.98;50.71;100921.22;2076083;28;19925;-65
2021/11/19 03:51:33;;;;;;;;;;;;;;;19.99;50.99;100928.41;2076307;28;19916;-65
2021/11/19 03:52:35;;;;;;;;;;;;;;;19.97;50.91;100925.84;2073958;28;19917;-65
2021/11/19 03:53:36;;;;;;;;;;;;;;;19.96;50.94;100921.34;2072065;28;19917;-65
2021/11/19 03:54:38;;;;;;;;;;;;;;;19.97;50.83;100917.63;2076679;28;19970;-66
2021/11/19 03:55:40;;;;;;;;;;;;;;;19.97;50.77;100917.63;2069801;28;20010;-65
2021/11/19 03:56:41;;;;;;;;;;;;;;;19.97;50.81;100923.09;2068936;28;19917;-66
2021/11/19 03:57:42;;;;;;;;;;;;;;;19.97;50.86;100917.63;2073046;28;19986;-65
2021/11/19 03:58:44;;;;;;;;;;;;;;;19.96;50.78;100921.34;2071898;28;19909;-65
2021/11/19 03:59:45;;;;;;;;;;;;;;;19.96;50.90;100921.34;2074788;28;20384;-66
2021/11/19 04:00:50;;;;;;;;;;;;;;;19.96;50.86;100915.88;2070004;28;20389;-65
2021/11/19 04:01:51;;;;;;;;;;;;;;;19.96;50.91;100915.00;2068254;28;20053;-65
2021/11/19 04:02:52;;;;;;;;;;;;;;;19.96;50.74;100913.13;2074639;28;19931;-65
2021/11/19 04:03:53;;;;;;;;;;;;;;;19.96;50.84;100915.00;2070741;28;20446;-65
2021/11/19 04:04:54;;;;;;;;;;;;;;;19.95;50.80;100916.88;2069953;28;20314;-66
2021/11/19 04:05:54;;;;;;;;;;;;;;;19.95;50.71;100919.63;2069341;28;19921;-66
2021/11/19 04:06:58;;;;;;;;;;;;;;;19.94;50.88;100912.41;2072002;28;19917;-65
2021/11/19 04:07:58;;;;;;;;;;;;;;;19.94;50.87;100911.53;2074308;28;19930;-66
2021/11/19 04:08:58;;;;;;;;;;;;;;;19.93;50.81;100910.69;2075535;28;19924;-65
2021/11/19 04:09:59;;;;;;;;;;;;;;;19.95;50.73;100919.63;2074874;28;19916;-66
2021/11/19 04:10:59;;;;;;;;;;;;;;;19.94;50.85;100917.00;2073793;28;19990;-66
2021/11/19 04:12:01;;;;;;;;;;;;;;;19.93;50.82;100910.69;2076984;28;19917;-66
2021/11/19 04:13:01;;;;;;;;;;;;;;;19.93;50.85;100916.16;2074646;28;19925;-66
2021/11/19 04:14:02;;;;;;;;;;;;;;;19.92;50.79;100911.69;2073131;28;20433;-65
2021/11/19 04:15:05;;;;;;;;;;;;;;;19.92;50.83;100915.28;2075887;28;20684;-65
2021/11/19 04:16:09;;;;;;;;;;;;;;;19.92;50.74;100917.16;2071678;28;20963;-65
2021/11/19 04:17:09;;;;;;;;;;;;;;;19.91;50.80;100913.53;2073705;28;20431;-66
2021/11/19 04:18:10;;;;;;;;;;;;;;;19.91;50.83;100919.00;2076944;28;20733;-66
2021/11/19 04:19:11;;;;;;;;;;;;;;;19.91;50.89;100924.50;2074018;28;20003;-66
2021/11/19 04:20:13;;;;;;;;;;;;;;;19.91;50.79;100924.50;2075572;28;19941;-66
2021/11/19 04:21:14;;;;;;;;;;;;;;;19.91;50.91;100918.16;2070808;28;19920;-65
2021/11/19 04:22:16;;;;;;;;;;;;;;;19.91;50.87;100921.75;2069273;28;20387;-65
2021/11/19 04:23:17;;;;;;;;;;;;;;;19.90;50.76;100916.44;2070453;28;19917;-65
2021/11/19 04:24:21;;;;;;;;;;;;;;;19.91;50.86;100918.16;2069910;28;20034;-65
2021/11/19 04:25:22;;;;;;;;;;;;;;;19.91;50.81;100915.41;2060330;28;19921;-66
2021/11/19 04:26:23;;;;;;;;;;;;;;;19.90;50.88;100911.81;2064372;28;19917;-65
2021/11/19 04:27:23;;;;;;;;;;;;;;;19.90;50.91;100920.03;2076459;28;19909;-65
2021/11/19 04:28:24;;;;;;;;;;;;;;;19.90;50.88;100922.75;2066082;28;19913;-65
2021/11/19 04:29:24;;;;;;;;;;;;;;;19.90;50.95;100922.75;2066003;28;19917;-66
2021/11/19 04:30:26;;;;;;;;;;;;;;;19.91;50.82;100918.16;2077080;28;19960;-66
2021/11/19 04:31:28;;;;;;;;;;;;;;;19.91;50.79;100921.75;2072875;28;20010;-65
2021/11/19 04:32:28;;;;;;;;;;;;;;;19.92;50.79;100936.31;2073910;28;19983;-66
2021/11/19 04:33:29;;;;;;;;;;;;;;;19.92;50.81;100923.50;2085591;28;19970;-66
2021/11/19 04:34:29;;;;;;;;;;;;;;;19.94;50.78;100922.50;2070974;28;19909;-65
2021/11/19 04:35:30;;;;;;;;;;;;;;;19.95;50.85;100922.38;2070709;28;19924;-66
2021/11/19 04:36:31;;;;;;;;;;;;;;;19.97;50.68;100917.63;2072011;28;19999;-65
2021/11/19 04:37:31;;;;;;;;;;;;;;;19.97;50.90;100917.63;2072699;28;19916;-65
2021/11/19 04:38:31;;;;;;;;;;;;;;;19.97;50.91;100923.09;2071416;28;19917;-65
2021/11/19 04:39:32;;;;;;;;;;;;;;;19.98;50.84;100924.81;2074832;28;19921;-66
2021/11/19 04:40:33;;;;;;;;;;;;;;;19.99;50.68;100910.16;2073116;28;20777;-66
2021/11/19 04:41:34;;;;;;;;;;;;;;;20.00;50.79;100917.34;2075511;28;19917;-66
2021/11/19 04:42:35;;;;;;;;;;;;;;;20.00;50.78;100917.34;2074737;28;19909;-65
2021/11/19 04:43:36;;;;;;;;;;;;;;;20.01;50.81;100921.81;2075461;28;20367;-65
2021/11/19 04:44:37;;;;;;;;;;;;;;;20.02;50.86;100922.69;2077049;28;19912;-65
2021/11/19 04:45:38;;;;;;;;;;;;;;;20.02;50.68;100920.81;2072165;28;20030;-65
2021/11/19 04:46:39;;;;;;;;;;;;;;;20.02;50.81;100920.81;2070495;28;19949;-65
2021/11/19 04:47:39;;;;;;;;;;;;;;;20.01;50.64;100919.06;2074751;28;19912;-66
2021/11/19 04:48:39;;;;;;;;;;;;;;;20.02;50.63;100923.56;2074381;28;19920;-65
2021/11/19 04:49:40;;;;;;;;;;;;;;;20.04;50.67;100916.09;2076936;28;19917;-65
2021/11/19 04:50:42;;;;;;;;;;;;;;;20.04;50.46;100918.81;2075034;28;19917;-66
2021/11/19 04:51:44;;;;;;;;;;;;;;;20.04;50.56;100918.81;2075441;28;20391;-66
2021/11/19 04:52:44;;;;;;;;;;;;;;;20.05;50.51;100920.53;2077552;28;20706;-65
2021/11/19 04:53:45;;;;;;;;;;;;;;;20.05;50.52;100915.06;2072807;28;19992;-65
2021/11/19 04:54:47;;;;;;;;;;;;;;;20.07;50.49;100914.94;2068367;28;19905;-65
2021/11/19 04:55:47;;;;;;;;;;;;;;;20.07;50.46;100917.69;2067404;28;20011;-65
2021/11/19 04:56:48;;;;;;;;;;;;;;;20.08;50.52;100906.56;2071294;28;19924;-66
2021/11/19 04:57:49;;;;;;;;;;;;;;;20.10;50.49;100912.78;2073974;28;19959;-66
2021/11/19 04:58:49;;;;;;;;;;;;;;;20.10;50.46;100911.91;2074253;28;20449;-66
2021/11/19 04:59:49;;;;;;;;;;;;;;;20.11;50.48;100920.00;2075550;28;20340;-66
2021/11/19 05:00:55;;;;;;;;;;;;;;;20.11;50.36;100914.53;2064331;28;19944;-66
2021/11/19 05:01:57;;;;;;;;;;;;;;;20.12;50.31;100919.00;2065539;28;19909;-66
2021/11/19 05:02:57;;;;;;;;;;;;;;;20.13;50.44;100914.38;2069240;28;19944;-65
2021/11/19 05:03:58;;;;;;;;;;;;;;;20.14;50.42;100913.41;2075638;28;19942;-65
2021/11/19 05:04:58;;;;;;;;;;;;;;;20.16;50.30;100921.44;2070888;28;19917;-66
2021/11/19 05:05:59;;;;;;;;;;;;;;;20.16;50.43;100915.97;2075254;28;19972;-65
2021/11/19 05:06:59;;;;;;;;;;;;;;;20.17;50.45;100923.19;2076742;28;19971;-66
2021/11/19 05:07:59;;;;;;;;;;;;;;;20.17;50.26;100925.94;2063805;28;19913;-65
2021/11/19 05:09:00;;;;;;;;;;;;;;;20.18;50.25;100919.44;2069110;28;19972;-66
2021/11/19 05:10:01;;;;;;;;;;;;;;;20.19;50.33;100915.72;2074474;28;19946;-65
2021/11/19 05:11:02;;;;;;;;;;;;;;;20.20;50.15;100921.03;2074384;28;19921;-65
2021/11/19 05:12:02;;;;;;;;;;;;;;;20.21;50.24;100924.63;2074765;28;19921;-66
2021/11/19 05:13:04;;;;;;;;;;;;;;;20.21;50.25;100919.16;2071816;28;19920;-66
2021/11/19 05:14:05;;;;;;;;;;;;;;;20.21;50.19;100913.69;2078077;28;20779;-65
2021/11/19 05:15:07;;;;;;;;;;;;;;;20.21;50.24;100916.44;2077188;28;19909;-66
2021/11/19 05:16:09;;;;;;;;;;;;;;;20.21;50.05;100917.31;2077584;28;20305;-66
2021/11/19 05:17:10;;;;;;;;;;;;;;;20.22;50.15;100909.97;2069687;28;19913;-66
2021/11/19 05:18:11;;;;;;;;;;;;;;;20.22;50.23;100910.81;2074979;28;20089;-65
2021/11/19 05:19:11;;;;;;;;;;;;;;;20.23;50.15;100917.16;2075524;28;20012;-68